sensor_id;sensor_type;location;lat;lon;timestamp;P1;durP1;ratioP1;P2;durP2;ratioP2
71176;SDS011;58877;51.992;4.504;2022-10-22T00:00:28;7.86;;;7.78;;
71176;SDS011;58877;51.992;4.504;2022-10-22T00:02:54;11.62;;;11.53;;
71176;SDS011;58877;51.992;4.504;2022-10-22T00:05:19;9.20;;;9.03;;
71176;SDS011;58877;51.992;4.504;2022-10-22T00:07:45;10.05;;;9.64;;
71176;SDS011;58877;51.992;4.504;2022-10-22T00:10:11;10.50;;;9.66;;
71176;SDS011;58877;51.992;4.504;2022-10-22T00:12:36;7.96;;;7.46;;
71176;SDS011;58877;51.992;4.504;2022-10-22T00:15:04;3.40;;;3.29;;
71176;SDS011;58877;51.992;4.504;2022-10-22T00:17:30;2.50;;;2.42;;
71176;SDS011;58877;51.992;4.504;2022-10-22T00:19:56;2.61;;;2.53;;
71176;SDS011;58877;51.992;4.504;2022-10-22T00:22:21;2.80;;;2.70;;
71176;SDS011;58877;51.992;4.504;2022-10-22T00:24:47;2.59;;;2.46;;
71176;SDS011;58877;51.992;4.504;2022-10-22T00:27:13;2.53;;;2.37;;
71176;SDS011;58877;51.992;4.504;2022-10-22T00:29:39;3.12;;;2.91;;
71176;SDS011;58877;51.992;4.504;2022-10-22T00:32:05;2.70;;;2.50;;
71176;SDS011;58877;51.992;4.504;2022-10-22T00:34:31;2.71;;;2.54;;
71176;SDS011;58877;51.992;4.504;2022-10-22T00:36:57;2.89;;;2.71;;
71176;SDS011;58877;51.992;4.504;2022-10-22T00:39:23;2.74;;;2.57;;
71176;SDS011;58877;51.992;4.504;2022-10-22T00:41:50;2.75;;;2.60;;
71176;SDS011;58877;51.992;4.504;2022-10-22T00:47:21;3.00;;;2.81;;
71176;SDS011;58877;51.992;4.504;2022-10-22T00:49:49;3.01;;;2.74;;
71176;SDS011;58877;51.992;4.504;2022-10-22T00:52:17;2.74;;;2.51;;
71176;SDS011;58877;51.992;4.504;2022-10-22T00:54:44;2.90;;;2.70;;
71176;SDS011;58877;51.992;4.504;2022-10-22T00:57:10;3.17;;;2.95;;
71176;SDS011;58877;51.992;4.504;2022-10-22T00:59:36;3.35;;;3.09;;
71176;SDS011;58877;51.992;4.504;2022-10-22T01:02:03;2.90;;;2.62;;
71176;SDS011;58877;51.992;4.504;2022-10-22T01:04:29;2.96;;;2.63;;
71176;SDS011;58877;51.992;4.504;2022-10-22T01:06:55;3.45;;;3.05;;
71176;SDS011;58877;51.992;4.504;2022-10-22T01:09:38;3.25;;;2.90;;
71176;SDS011;58877;51.992;4.504;2022-10-22T01:12:14;2.86;;;2.59;;
71176;SDS011;58877;51.992;4.504;2022-10-22T01:23:21;2.55;;;2.36;;
71176;SDS011;58877;51.992;4.504;2022-10-22T01:31:18;2.85;;;2.66;;
71176;SDS011;58877;51.992;4.504;2022-10-22T01:33:49;3.21;;;2.97;;
71176;SDS011;58877;51.992;4.504;2022-10-22T01:36:19;2.64;;;2.47;;
71176;SDS011;58877;51.992;4.504;2022-10-22T01:38:46;2.69;;;2.52;;
71176;SDS011;58877;51.992;4.504;2022-10-22T01:41:15;2.67;;;2.50;;
71176;SDS011;58877;51.992;4.504;2022-10-22T01:43:41;2.76;;;2.59;;
71176;SDS011;58877;51.992;4.504;2022-10-22T01:46:08;2.96;;;2.73;;
71176;SDS011;58877;51.992;4.504;2022-10-22T01:56:57;3.24;;;2.95;;
71176;SDS011;58877;51.992;4.504;2022-10-22T02:02:32;2.47;;;2.29;;
71176;SDS011;58877;51.992;4.504;2022-10-22T02:05:23;2.58;;;2.40;;
71176;SDS011;58877;51.992;4.504;2022-10-22T02:08:15;2.90;;;2.70;;
71176;SDS011;58877;51.992;4.504;2022-10-22T02:10:46;2.93;;;2.68;;
71176;SDS011;58877;51.992;4.504;2022-10-22T02:13:34;3.18;;;2.84;;
71176;SDS011;58877;51.992;4.504;2022-10-22T02:16:05;3.15;;;2.79;;
71176;SDS011;58877;51.992;4.504;2022-10-22T02:18:34;3.43;;;3.04;;
71176;SDS011;58877;51.992;4.504;2022-10-22T02:21:05;3.05;;;2.68;;
71176;SDS011;58877;51.992;4.504;2022-10-22T02:23:32;2.97;;;2.59;;
71176;SDS011;58877;51.992;4.504;2022-10-22T02:26:03;2.53;;;2.22;;
71176;SDS011;58877;51.992;4.504;2022-10-22T02:28:36;3.01;;;2.66;;
71176;SDS011;58877;51.992;4.504;2022-10-22T02:31:20;2.92;;;2.55;;
71176;SDS011;58877;51.992;4.504;2022-10-22T02:33:53;2.96;;;2.60;;
71176;SDS011;58877;51.992;4.504;2022-10-22T02:36:23;2.64;;;2.32;;
71176;SDS011;58877;51.992;4.504;2022-10-22T02:38:50;2.84;;;2.48;;
71176;SDS011;58877;51.992;4.504;2022-10-22T02:41:17;2.72;;;2.37;;
71176;SDS011;58877;51.992;4.504;2022-10-22T02:43:47;3.33;;;2.85;;
71176;SDS011;58877;51.992;4.504;2022-10-22T02:46:17;3.34;;;2.80;;
71176;SDS011;58877;51.992;4.504;2022-10-22T02:48:43;2.81;;;2.39;;
71176;SDS011;58877;51.992;4.504;2022-10-22T02:51:08;2.86;;;2.45;;
71176;SDS011;58877;51.992;4.504;2022-10-22T02:53:34;2.82;;;2.44;;
71176;SDS011;58877;51.992;4.504;2022-10-22T02:56:00;3.24;;;2.81;;
71176;SDS011;58877;51.992;4.504;2022-10-22T02:58:25;3.09;;;2.66;;
71176;SDS011;58877;51.992;4.504;2022-10-22T03:00:51;3.62;;;3.00;;
71176;SDS011;58877;51.992;4.504;2022-10-22T03:03:17;3.18;;;2.56;;
71176;SDS011;58877;51.992;4.504;2022-10-22T03:05:42;3.06;;;2.49;;
71176;SDS011;58877;51.992;4.504;2022-10-22T03:08:08;3.16;;;2.62;;
71176;SDS011;58877;51.992;4.504;2022-10-22T03:10:33;3.20;;;2.66;;
71176;SDS011;58877;51.992;4.504;2022-10-22T03:12:59;3.13;;;2.60;;
71176;SDS011;58877;51.992;4.504;2022-10-22T03:15:32;3.18;;;2.64;;
71176;SDS011;58877;51.992;4.504;2022-10-22T03:17:58;2.89;;;2.39;;
71176;SDS011;58877;51.992;4.504;2022-10-22T03:20:23;3.09;;;2.51;;
71176;SDS011;58877;51.992;4.504;2022-10-22T03:22:48;3.69;;;2.98;;
71176;SDS011;58877;51.992;4.504;2022-10-22T03:25:19;3.30;;;2.67;;
71176;SDS011;58877;51.992;4.504;2022-10-22T03:27:48;3.13;;;2.54;;
71176;SDS011;58877;51.992;4.504;2022-10-22T03:30:18;2.59;;;2.16;;
71176;SDS011;58877;51.992;4.504;2022-10-22T03:32:43;3.18;;;2.65;;
71176;SDS011;58877;51.992;4.504;2022-10-22T03:35:09;3.49;;;2.79;;
71176;SDS011;58877;51.992;4.504;2022-10-22T03:37:35;3.10;;;2.50;;
71176;SDS011;58877;51.992;4.504;2022-10-22T03:40:02;3.42;;;2.75;;
71176;SDS011;58877;51.992;4.504;2022-10-22T03:42:39;3.32;;;2.65;;
71176;SDS011;58877;51.992;4.504;2022-10-22T03:45:06;2.89;;;2.29;;
71176;SDS011;58877;51.992;4.504;2022-10-22T03:47:33;3.23;;;2.52;;
71176;SDS011;58877;51.992;4.504;2022-10-22T03:49:58;3.09;;;2.40;;
71176;SDS011;58877;51.992;4.504;2022-10-22T03:52:34;3.86;;;3.02;;
71176;SDS011;58877;51.992;4.504;2022-10-22T03:55:01;3.62;;;2.78;;
71176;SDS011;58877;51.992;4.504;2022-10-22T03:57:28;3.33;;;2.58;;
71176;SDS011;58877;51.992;4.504;2022-10-22T03:59:53;4.06;;;3.09;;
71176;SDS011;58877;51.992;4.504;2022-10-22T04:02:19;3.92;;;2.92;;
71176;SDS011;58877;51.992;4.504;2022-10-22T04:04:46;3.71;;;2.83;;
71176;SDS011;58877;51.992;4.504;2022-10-22T04:07:15;3.63;;;2.83;;
71176;SDS011;58877;51.992;4.504;2022-10-22T04:09:40;3.52;;;2.73;;
71176;SDS011;58877;51.992;4.504;2022-10-22T04:12:06;3.79;;;3.02;;
71176;SDS011;58877;51.992;4.504;2022-10-22T04:14:33;3.30;;;2.63;;
71176;SDS011;58877;51.992;4.504;2022-10-22T04:16:59;3.45;;;2.71;;
71176;SDS011;58877;51.992;4.504;2022-10-22T04:19:25;3.62;;;2.83;;
71176;SDS011;58877;51.992;4.504;2022-10-22T04:21:50;3.37;;;2.62;;
71176;SDS011;58877;51.992;4.504;2022-10-22T04:24:24;3.47;;;2.69;;
71176;SDS011;58877;51.992;4.504;2022-10-22T04:26:52;3.11;;;2.46;;
71176;SDS011;58877;51.992;4.504;2022-10-22T04:29:18;3.05;;;2.47;;
71176;SDS011;58877;51.992;4.504;2022-10-22T04:31:44;3.51;;;2.81;;
71176;SDS011;58877;51.992;4.504;2022-10-22T04:34:10;3.53;;;2.87;;
71176;SDS011;58877;51.992;4.504;2022-10-22T04:36:35;3.22;;;2.57;;
71176;SDS011;58877;51.992;4.504;2022-10-22T04:39:03;3.53;;;2.80;;
71176;SDS011;58877;51.992;4.504;2022-10-22T04:41:35;3.22;;;2.58;;
71176;SDS011;58877;51.992;4.504;2022-10-22T04:44:02;3.26;;;2.61;;
71176;SDS011;58877;51.992;4.504;2022-10-22T04:46:29;3.17;;;2.50;;
71176;SDS011;58877;51.992;4.504;2022-10-22T04:48:56;2.79;;;2.24;;
71176;SDS011;58877;51.992;4.504;2022-10-22T04:51:30;3.78;;;2.99;;
71176;SDS011;58877;51.992;4.504;2022-10-22T04:54:07;3.00;;;2.40;;
71176;SDS011;58877;51.992;4.504;2022-10-22T04:56:33;3.04;;;2.48;;
71176;SDS011;58877;51.992;4.504;2022-10-22T04:59:03;3.64;;;2.89;;
71176;SDS011;58877;51.992;4.504;2022-10-22T05:04:14;4.17;;;3.13;;
71176;SDS011;58877;51.992;4.504;2022-10-22T05:06:44;3.75;;;2.82;;
71176;SDS011;58877;51.992;4.504;2022-10-22T05:09:14;3.36;;;2.57;;
71176;SDS011;58877;51.992;4.504;2022-10-22T05:11:43;3.58;;;2.75;;
71176;SDS011;58877;51.992;4.504;2022-10-22T05:14:12;3.88;;;2.95;;
71176;SDS011;58877;51.992;4.504;2022-10-22T05:16:44;3.04;;;2.41;;
71176;SDS011;58877;51.992;4.504;2022-10-22T05:19:25;3.14;;;2.59;;
71176;SDS011;58877;51.992;4.504;2022-10-22T05:21:54;3.08;;;2.55;;
71176;SDS011;58877;51.992;4.504;2022-10-22T05:24:21;3.14;;;2.54;;
71176;SDS011;58877;51.992;4.504;2022-10-22T05:26:48;3.33;;;2.65;;
71176;SDS011;58877;51.992;4.504;2022-10-22T05:29:15;3.89;;;2.97;;
71176;SDS011;58877;51.992;4.504;2022-10-22T05:31:40;3.93;;;2.95;;
71176;SDS011;58877;51.992;4.504;2022-10-22T05:34:14;3.72;;;2.79;;
71176;SDS011;58877;51.992;4.504;2022-10-22T05:36:40;3.45;;;2.62;;
71176;SDS011;58877;51.992;4.504;2022-10-22T05:39:06;3.81;;;2.95;;
71176;SDS011;58877;51.992;4.504;2022-10-22T05:41:32;3.25;;;2.58;;
71176;SDS011;58877;51.992;4.504;2022-10-22T05:44:00;3.29;;;2.57;;
71176;SDS011;58877;51.992;4.504;2022-10-22T05:46:27;3.32;;;2.63;;
71176;SDS011;58877;51.992;4.504;2022-10-22T05:48:55;3.24;;;2.57;;
71176;SDS011;58877;51.992;4.504;2022-10-22T05:51:23;2.75;;;2.23;;
71176;SDS011;58877;51.992;4.504;2022-10-22T05:53:51;3.23;;;2.57;;
71176;SDS011;58877;51.992;4.504;2022-10-22T05:56:25;3.18;;;2.47;;
71176;SDS011;58877;51.992;4.504;2022-10-22T05:58:52;2.94;;;2.33;;
71176;SDS011;58877;51.992;4.504;2022-10-22T06:01:21;4.00;;;3.13;;
71176;SDS011;58877;51.992;4.504;2022-10-22T06:04:00;3.55;;;2.72;;
71176;SDS011;58877;51.992;4.504;2022-10-22T06:06:48;3.22;;;2.47;;
71176;SDS011;58877;51.992;4.504;2022-10-22T06:09:22;4.11;;;3.11;;
71176;SDS011;58877;51.992;4.504;2022-10-22T06:12:00;3.43;;;2.60;;
71176;SDS011;58877;51.992;4.504;2022-10-22T06:14:27;3.68;;;2.86;;
71176;SDS011;58877;51.992;4.504;2022-10-22T06:16:57;3.67;;;2.85;;
71176;SDS011;58877;51.992;4.504;2022-10-22T06:19:23;3.50;;;2.72;;
71176;SDS011;58877;51.992;4.504;2022-10-22T06:21:55;3.25;;;2.58;;
71176;SDS011;58877;51.992;4.504;2022-10-22T06:25:07;3.79;;;2.86;;
71176;SDS011;58877;51.992;4.504;2022-10-22T06:27:36;3.68;;;2.73;;
71176;SDS011;58877;51.992;4.504;2022-10-22T06:39:51;3.07;;;2.42;;
71176;SDS011;58877;51.992;4.504;2022-10-22T06:42:33;3.71;;;2.81;;
71176;SDS011;58877;51.992;4.504;2022-10-22T06:45:02;4.05;;;3.06;;
71176;SDS011;58877;51.992;4.504;2022-10-22T06:47:44;3.50;;;2.68;;
71176;SDS011;58877;51.992;4.504;2022-10-22T06:50:35;3.41;;;2.61;;
71176;SDS011;58877;51.992;4.504;2022-10-22T06:53:18;3.49;;;2.67;;
71176;SDS011;58877;51.992;4.504;2022-10-22T06:56:31;4.13;;;3.10;;
71176;SDS011;58877;51.992;4.504;2022-10-22T06:59:53;4.43;;;3.17;;
71176;SDS011;58877;51.992;4.504;2022-10-22T07:03:13;4.80;;;3.40;;
71176;SDS011;58877;51.992;4.504;2022-10-22T07:05:52;4.09;;;2.89;;
71176;SDS011;58877;51.992;4.504;2022-10-22T07:08:59;3.80;;;2.75;;
71176;SDS011;58877;51.992;4.504;2022-10-22T07:11:43;3.66;;;2.61;;
71176;SDS011;58877;51.992;4.504;2022-10-22T07:17:25;3.94;;;2.84;;
71176;SDS011;58877;51.992;4.504;2022-10-22T07:20:08;4.28;;;3.06;;
71176;SDS011;58877;51.992;4.504;2022-10-22T07:22:42;3.65;;;2.63;;
71176;SDS011;58877;51.992;4.504;2022-10-22T07:25:32;3.97;;;2.90;;
71176;SDS011;58877;51.992;4.504;2022-10-22T07:28:14;3.54;;;2.61;;
71176;SDS011;58877;51.992;4.504;2022-10-22T07:30:46;3.39;;;2.45;;
71176;SDS011;58877;51.992;4.504;2022-10-22T07:33:13;3.92;;;2.80;;
71176;SDS011;58877;51.992;4.504;2022-10-22T07:35:39;4.55;;;3.16;;
71176;SDS011;58877;51.992;4.504;2022-10-22T07:38:05;4.36;;;3.02;;
71176;SDS011;58877;51.992;4.504;2022-10-22T07:40:32;4.37;;;3.00;;
71176;SDS011;58877;51.992;4.504;2022-10-22T07:42:58;4.37;;;3.00;;
71176;SDS011;58877;51.992;4.504;2022-10-22T07:45:24;3.68;;;2.57;;
71176;SDS011;58877;51.992;4.504;2022-10-22T07:47:49;3.79;;;2.66;;
71176;SDS011;58877;51.992;4.504;2022-10-22T07:50:15;4.01;;;2.83;;
71176;SDS011;58877;51.992;4.504;2022-10-22T07:52:41;4.53;;;3.18;;
71176;SDS011;58877;51.992;4.504;2022-10-22T07:55:07;3.73;;;2.58;;
71176;SDS011;58877;51.992;4.504;2022-10-22T07:57:32;3.96;;;2.72;;
71176;SDS011;58877;51.992;4.504;2022-10-22T07:59:59;3.80;;;2.61;;
71176;SDS011;58877;51.992;4.504;2022-10-22T08:02:24;3.83;;;2.68;;
71176;SDS011;58877;51.992;4.504;2022-10-22T08:04:50;3.98;;;2.82;;
71176;SDS011;58877;51.992;4.504;2022-10-22T08:07:16;3.92;;;2.78;;
71176;SDS011;58877;51.992;4.504;2022-10-22T08:09:42;4.34;;;3.05;;
71176;SDS011;58877;51.992;4.504;2022-10-22T08:12:08;3.87;;;2.72;;
71176;SDS011;58877;51.992;4.504;2022-10-22T08:14:34;3.81;;;2.63;;
71176;SDS011;58877;51.992;4.504;2022-10-22T08:16:59;4.86;;;3.27;;
71176;SDS011;58877;51.992;4.504;2022-10-22T08:19:25;4.22;;;2.82;;
71176;SDS011;58877;51.992;4.504;2022-10-22T08:21:50;3.90;;;2.66;;
71176;SDS011;58877;51.992;4.504;2022-10-22T08:24:16;4.48;;;3.04;;
71176;SDS011;58877;51.992;4.504;2022-10-22T08:26:41;3.93;;;2.69;;
71176;SDS011;58877;51.992;4.504;2022-10-22T08:29:07;4.07;;;2.81;;
71176;SDS011;58877;51.992;4.504;2022-10-22T08:31:33;3.87;;;2.70;;
71176;SDS011;58877;51.992;4.504;2022-10-22T08:33:59;3.72;;;2.58;;
71176;SDS011;58877;51.992;4.504;2022-10-22T08:36:25;3.94;;;2.76;;
71176;SDS011;58877;51.992;4.504;2022-10-22T08:38:50;3.29;;;2.33;;
71176;SDS011;58877;51.992;4.504;2022-10-22T08:41:19;3.78;;;2.63;;
71176;SDS011;58877;51.992;4.504;2022-10-22T08:46:19;3.94;;;2.68;;
71176;SDS011;58877;51.992;4.504;2022-10-22T08:49:03;4.90;;;3.30;;
71176;SDS011;58877;51.992;4.504;2022-10-22T08:51:36;4.19;;;2.81;;
71176;SDS011;58877;51.992;4.504;2022-10-22T08:56:54;4.34;;;3.00;;
71176;SDS011;58877;51.992;4.504;2022-10-22T09:08:12;4.23;;;3.03;;
71176;SDS011;58877;51.992;4.504;2022-10-22T09:10:55;4.19;;;2.98;;
71176;SDS011;58877;51.992;4.504;2022-10-22T09:13:27;4.91;;;3.44;;
71176;SDS011;58877;51.992;4.504;2022-10-22T09:15:54;4.84;;;3.40;;
71176;SDS011;58877;51.992;4.504;2022-10-22T09:18:35;3.67;;;2.64;;
71176;SDS011;58877;51.992;4.504;2022-10-22T09:26:24;4.16;;;2.98;;
71176;SDS011;58877;51.992;4.504;2022-10-22T09:28:51;4.60;;;3.30;;
71176;SDS011;58877;51.992;4.504;2022-10-22T09:31:17;4.35;;;3.09;;
71176;SDS011;58877;51.992;4.504;2022-10-22T09:33:44;4.48;;;3.14;;
71176;SDS011;58877;51.992;4.504;2022-10-22T09:36:17;4.12;;;2.84;;
71176;SDS011;58877;51.992;4.504;2022-10-22T09:38:47;3.88;;;2.65;;
71176;SDS011;58877;51.992;4.504;2022-10-22T09:41:15;4.00;;;2.72;;
71176;SDS011;58877;51.992;4.504;2022-10-22T09:43:41;4.36;;;2.94;;
71176;SDS011;58877;51.992;4.504;2022-10-22T09:46:13;4.32;;;2.86;;
71176;SDS011;58877;51.992;4.504;2022-10-22T09:48:51;4.44;;;2.93;;
71176;SDS011;58877;51.992;4.504;2022-10-22T09:51:39;5.53;;;3.57;;
71176;SDS011;58877;51.992;4.504;2022-10-22T09:54:20;5.34;;;3.46;;
71176;SDS011;58877;51.992;4.504;2022-10-22T09:56:53;4.86;;;3.16;;
71176;SDS011;58877;51.992;4.504;2022-10-22T09:59:38;5.25;;;3.35;;
71176;SDS011;58877;51.992;4.504;2022-10-22T10:02:13;4.76;;;3.01;;
71176;SDS011;58877;51.992;4.504;2022-10-22T10:04:45;5.29;;;3.37;;
71176;SDS011;58877;51.992;4.504;2022-10-22T10:07:18;5.22;;;3.30;;
71176;SDS011;58877;51.992;4.504;2022-10-22T10:09:45;5.61;;;3.54;;
71176;SDS011;58877;51.992;4.504;2022-10-22T10:20:52;6.99;;;4.26;;
71176;SDS011;58877;51.992;4.504;2022-10-22T10:35:23;6.76;;;4.11;;
71176;SDS011;58877;51.992;4.504;2022-10-22T10:40:41;6.97;;;4.22;;
71176;SDS011;58877;51.992;4.504;2022-10-22T10:46:16;6.47;;;3.90;;
71176;SDS011;58877;51.992;4.504;2022-10-22T10:49:23;6.58;;;3.90;;
71176;SDS011;58877;51.992;4.504;2022-10-22T10:52:01;7.70;;;4.45;;
71176;SDS011;58877;51.992;4.504;2022-10-22T10:57:08;6.73;;;3.97;;
71176;SDS011;58877;51.992;4.504;2022-10-22T11:08:28;7.56;;;4.43;;
71176;SDS011;58877;51.992;4.504;2022-10-22T11:10:59;7.19;;;4.19;;
71176;SDS011;58877;51.992;4.504;2022-10-22T11:13:28;6.42;;;3.78;;
71176;SDS011;58877;51.992;4.504;2022-10-22T11:16:20;7.05;;;4.12;;
71176;SDS011;58877;51.992;4.504;2022-10-22T11:24:37;8.52;;;4.82;;
71176;SDS011;58877;51.992;4.504;2022-10-22T11:30:13;7.40;;;4.26;;
71176;SDS011;58877;51.992;4.504;2022-10-22T11:32:41;7.53;;;4.36;;
71176;SDS011;58877;51.992;4.504;2022-10-22T11:35:12;8.55;;;4.91;;
71176;SDS011;58877;51.992;4.504;2022-10-22T11:37:42;7.64;;;4.40;;
71176;SDS011;58877;51.992;4.504;2022-10-22T11:42:45;8.27;;;4.79;;
71176;SDS011;58877;51.992;4.504;2022-10-22T11:47:56;7.90;;;4.58;;
71176;SDS011;58877;51.992;4.504;2022-10-22T11:50:45;6.79;;;3.95;;
71176;SDS011;58877;51.992;4.504;2022-10-22T11:58:23;8.11;;;4.76;;
71176;SDS011;58877;51.992;4.504;2022-10-22T12:00:55;7.89;;;4.68;;
71176;SDS011;58877;51.992;4.504;2022-10-22T12:08:42;9.11;;;5.35;;
71176;SDS011;58877;51.992;4.504;2022-10-22T12:11:45;9.16;;;5.43;;
71176;SDS011;58877;51.992;4.504;2022-10-22T12:14:54;9.09;;;5.51;;
71176;SDS011;58877;51.992;4.504;2022-10-22T12:21:04;7.44;;;4.74;;
71176;SDS011;58877;51.992;4.504;2022-10-22T12:23:43;6.78;;;4.38;;
71176;SDS011;58877;51.992;4.504;2022-10-22T12:26:24;7.91;;;5.01;;
71176;SDS011;58877;51.992;4.504;2022-10-22T12:29:15;6.72;;;4.29;;
71176;SDS011;58877;51.992;4.504;2022-10-22T12:32:01;6.89;;;4.42;;
71176;SDS011;58877;51.992;4.504;2022-10-22T12:35:03;6.02;;;3.91;;
71176;SDS011;58877;51.992;4.504;2022-10-22T12:37:57;6.25;;;4.03;;
71176;SDS011;58877;51.992;4.504;2022-10-22T12:40:52;6.75;;;4.38;;
71176;SDS011;58877;51.992;4.504;2022-10-22T12:43:38;5.43;;;3.55;;
71176;SDS011;58877;51.992;4.504;2022-10-22T12:46:10;5.31;;;3.51;;
71176;SDS011;58877;51.992;4.504;2022-10-22T12:48:42;5.27;;;3.58;;
71176;SDS011;58877;51.992;4.504;2022-10-22T12:51:24;5.26;;;3.47;;
71176;SDS011;58877;51.992;4.504;2022-10-22T12:53:55;4.17;;;2.69;;
71176;SDS011;58877;51.992;4.504;2022-10-22T12:56:36;5.07;;;3.27;;
71176;SDS011;58877;51.992;4.504;2022-10-22T12:59:26;5.17;;;3.37;;
71176;SDS011;58877;51.992;4.504;2022-10-22T13:02:21;5.28;;;3.50;;
71176;SDS011;58877;51.992;4.504;2022-10-22T13:05:12;6.05;;;3.95;;
71176;SDS011;58877;51.992;4.504;2022-10-22T13:08:16;5.31;;;3.40;;
71176;SDS011;58877;51.992;4.504;2022-10-22T13:10:50;5.72;;;3.65;;
71176;SDS011;58877;51.992;4.504;2022-10-22T13:13:28;5.92;;;3.80;;
71176;SDS011;58877;51.992;4.504;2022-10-22T13:16:14;5.77;;;3.65;;
71176;SDS011;58877;51.992;4.504;2022-10-22T13:18:58;6.05;;;3.73;;
71176;SDS011;58877;51.992;4.504;2022-10-22T13:21:37;5.89;;;3.59;;
71176;SDS011;58877;51.992;4.504;2022-10-22T13:24:22;6.65;;;4.08;;
71176;SDS011;58877;51.992;4.504;2022-10-22T13:27:00;5.38;;;3.30;;
71176;SDS011;58877;51.992;4.504;2022-10-22T13:29:36;7.24;;;4.42;;
71176;SDS011;58877;51.992;4.504;2022-10-22T13:32:49;5.79;;;3.48;;
71176;SDS011;58877;51.992;4.504;2022-10-22T13:35:51;6.35;;;3.82;;
71176;SDS011;58877;51.992;4.504;2022-10-22T13:38:25;6.03;;;3.67;;
71176;SDS011;58877;51.992;4.504;2022-10-22T13:41:16;6.28;;;3.78;;
71176;SDS011;58877;51.992;4.504;2022-10-22T13:43:59;6.55;;;3.86;;
71176;SDS011;58877;51.992;4.504;2022-10-22T13:46:31;7.11;;;4.13;;
71176;SDS011;58877;51.992;4.504;2022-10-22T13:49:17;7.46;;;4.35;;
71176;SDS011;58877;51.992;4.504;2022-10-22T13:51:48;7.98;;;4.61;;
71176;SDS011;58877;51.992;4.504;2022-10-22T13:54:17;7.63;;;4.39;;
71176;SDS011;58877;51.992;4.504;2022-10-22T13:56:49;7.07;;;4.07;;
71176;SDS011;58877;51.992;4.504;2022-10-22T13:59:17;8.10;;;4.70;;
71176;SDS011;58877;51.992;4.504;2022-10-22T14:01:49;8.65;;;4.96;;
71176;SDS011;58877;51.992;4.504;2022-10-22T14:04:17;7.39;;;4.27;;
71176;SDS011;58877;51.992;4.504;2022-10-22T14:06:42;7.93;;;4.62;;
71176;SDS011;58877;51.992;4.504;2022-10-22T14:09:12;6.96;;;4.06;;
71176;SDS011;58877;51.992;4.504;2022-10-22T14:11:39;7.51;;;4.40;;
71176;SDS011;58877;51.992;4.504;2022-10-22T14:14:05;6.60;;;3.93;;
71176;SDS011;58877;51.992;4.504;2022-10-22T14:16:33;6.55;;;3.89;;
71176;SDS011;58877;51.992;4.504;2022-10-22T14:19:00;8.12;;;4.76;;
71176;SDS011;58877;51.992;4.504;2022-10-22T14:21:32;6.64;;;3.89;;
71176;SDS011;58877;51.992;4.504;2022-10-22T14:24:01;7.45;;;4.36;;
71176;SDS011;58877;51.992;4.504;2022-10-22T14:26:28;8.07;;;4.72;;
71176;SDS011;58877;51.992;4.504;2022-10-22T14:28:57;5.87;;;3.40;;
71176;SDS011;58877;51.992;4.504;2022-10-22T14:31:24;6.63;;;3.87;;
71176;SDS011;58877;51.992;4.504;2022-10-22T14:33:50;6.95;;;4.04;;
71176;SDS011;58877;51.992;4.504;2022-10-22T14:36:17;6.40;;;3.69;;
71176;SDS011;58877;51.992;4.504;2022-10-22T14:38:44;8.07;;;4.67;;
71176;SDS011;58877;51.992;4.504;2022-10-22T14:41:18;6.81;;;3.94;;
71176;SDS011;58877;51.992;4.504;2022-10-22T14:43:47;6.17;;;3.57;;
71176;SDS011;58877;51.992;4.504;2022-10-22T14:46:14;8.25;;;4.80;;
71176;SDS011;58877;51.992;4.504;2022-10-22T14:48:41;7.30;;;4.25;;
71176;SDS011;58877;51.992;4.504;2022-10-22T14:51:10;5.47;;;3.20;;
71176;SDS011;58877;51.992;4.504;2022-10-22T14:53:47;7.46;;;4.38;;
71176;SDS011;58877;51.992;4.504;2022-10-22T14:58:50;7.04;;;4.15;;
71176;SDS011;58877;51.992;4.504;2022-10-22T15:01:17;7.07;;;4.13;;
71176;SDS011;58877;51.992;4.504;2022-10-22T15:03:42;8.70;;;5.07;;
71176;SDS011;58877;51.992;4.504;2022-10-22T15:06:08;7.32;;;4.28;;
71176;SDS011;58877;51.992;4.504;2022-10-22T15:08:33;6.18;;;3.66;;
71176;SDS011;58877;51.992;4.504;2022-10-22T15:11:03;6.85;;;4.09;;
71176;SDS011;58877;51.992;4.504;2022-10-22T15:13:31;7.84;;;4.66;;
71176;SDS011;58877;51.992;4.504;2022-10-22T15:15:57;6.19;;;3.66;;
71176;SDS011;58877;51.992;4.504;2022-10-22T15:18:24;6.47;;;3.83;;
71176;SDS011;58877;51.992;4.504;2022-10-22T15:20:54;6.80;;;4.13;;
71176;SDS011;58877;51.992;4.504;2022-10-22T15:23:20;7.51;;;4.56;;
71176;SDS011;58877;51.992;4.504;2022-10-22T15:25:46;7.31;;;4.42;;
71176;SDS011;58877;51.992;4.504;2022-10-22T15:28:11;6.80;;;4.09;;
71176;SDS011;58877;51.992;4.504;2022-10-22T15:30:37;6.28;;;3.92;;
71176;SDS011;58877;51.992;4.504;2022-10-22T15:33:02;6.35;;;3.94;;
71176;SDS011;58877;51.992;4.504;2022-10-22T15:35:28;7.02;;;4.33;;
71176;SDS011;58877;51.992;4.504;2022-10-22T15:37:53;5.42;;;3.46;;
71176;SDS011;58877;51.992;4.504;2022-10-22T15:40:19;5.73;;;3.69;;
71176;SDS011;58877;51.992;4.504;2022-10-22T15:42:44;5.59;;;3.62;;
71176;SDS011;58877;51.992;4.504;2022-10-22T15:45:10;5.40;;;3.58;;
71176;SDS011;58877;51.992;4.504;2022-10-22T15:47:36;5.17;;;3.51;;
71176;SDS011;58877;51.992;4.504;2022-10-22T15:50:02;5.44;;;3.77;;
71176;SDS011;58877;51.992;4.504;2022-10-22T15:52:28;5.77;;;4.04;;
71176;SDS011;58877;51.992;4.504;2022-10-22T15:54:54;6.31;;;4.39;;
71176;SDS011;58877;51.992;4.504;2022-10-22T15:57:20;7.33;;;4.97;;
71176;SDS011;58877;51.992;4.504;2022-10-22T15:59:46;7.02;;;4.72;;
71176;SDS011;58877;51.992;4.504;2022-10-22T16:02:11;6.20;;;4.22;;
71176;SDS011;58877;51.992;4.504;2022-10-22T16:04:37;5.86;;;4.11;;
71176;SDS011;58877;51.992;4.504;2022-10-22T16:07:03;5.48;;;3.84;;
71176;SDS011;58877;51.992;4.504;2022-10-22T16:09:28;6.19;;;4.33;;
71176;SDS011;58877;51.992;4.504;2022-10-22T16:11:54;5.11;;;3.63;;
71176;SDS011;58877;51.992;4.504;2022-10-22T16:14:20;5.73;;;4.19;;
71176;SDS011;58877;51.992;4.504;2022-10-22T16:16:49;6.05;;;4.60;;
71176;SDS011;58877;51.992;4.504;2022-10-22T16:19:17;5.37;;;4.10;;
71176;SDS011;58877;51.992;4.504;2022-10-22T16:21:45;5.84;;;4.50;;
71176;SDS011;58877;51.992;4.504;2022-10-22T16:24:14;5.28;;;4.15;;
71176;SDS011;58877;51.992;4.504;2022-10-22T16:26:39;5.66;;;4.47;;
71176;SDS011;58877;51.992;4.504;2022-10-22T16:29:05;6.51;;;4.92;;
71176;SDS011;58877;51.992;4.504;2022-10-22T16:31:32;5.98;;;4.67;;
71176;SDS011;58877;51.992;4.504;2022-10-22T16:33:58;6.14;;;4.90;;
71176;SDS011;58877;51.992;4.504;2022-10-22T16:36:24;4.93;;;4.12;;
71176;SDS011;58877;51.992;4.504;2022-10-22T16:38:49;4.44;;;3.74;;
71176;SDS011;58877;51.992;4.504;2022-10-22T16:41:16;4.18;;;3.45;;
71176;SDS011;58877;51.992;4.504;2022-10-22T16:43:44;5.32;;;4.28;;
71176;SDS011;58877;51.992;4.504;2022-10-22T16:46:12;4.98;;;3.92;;
71176;SDS011;58877;51.992;4.504;2022-10-22T16:48:43;4.66;;;3.82;;
71176;SDS011;58877;51.992;4.504;2022-10-22T16:51:20;4.26;;;3.65;;
71176;SDS011;58877;51.992;4.504;2022-10-22T16:53:47;4.63;;;4.17;;
71176;SDS011;58877;51.992;4.504;2022-10-22T16:56:15;5.20;;;4.83;;
71176;SDS011;58877;51.992;4.504;2022-10-22T16:58:48;5.31;;;4.81;;
71176;SDS011;58877;51.992;4.504;2022-10-22T17:01:16;4.74;;;4.33;;
71176;SDS011;58877;51.992;4.504;2022-10-22T17:03:43;4.95;;;4.43;;
71176;SDS011;58877;51.992;4.504;2022-10-22T17:06:09;4.44;;;4.11;;
71176;SDS011;58877;51.992;4.504;2022-10-22T17:08:36;4.45;;;4.19;;
71176;SDS011;58877;51.992;4.504;2022-10-22T17:13:31;4.56;;;4.38;;
71176;SDS011;58877;51.992;4.504;2022-10-22T17:16:04;5.19;;;4.94;;
71176;SDS011;58877;51.992;4.504;2022-10-22T17:18:32;5.99;;;5.67;;
71176;SDS011;58877;51.992;4.504;2022-10-22T17:20:59;7.18;;;6.71;;
71176;SDS011;58877;51.992;4.504;2022-10-22T17:23:25;8.97;;;8.47;;
71176;SDS011;58877;51.992;4.504;2022-10-22T17:25:59;8.95;;;8.68;;
71176;SDS011;58877;51.992;4.504;2022-10-22T17:28:28;8.57;;;8.31;;